Beebe, South Dakota
Current Conditions -  °F | °C
As of 9:53 AM on Sunday 23 Nov 2014 (Local Time) from KABR Reporting Station
Broken Clouds Broken Clouds  
Wind Chill: 32°   Ceiling: 4800
Heat Index: 40°   Visibility: 10mi
Dew Point: 32°   Wind: 15mph
Humidity: 73%   Direction: 280°W
Pressure: 29.52"   Gusts: NA
Location:  45.4755°N, 98.5387°W
Report Text: KABR 231553Z AUTO 28013KT 10SM BKN048 04/00 A2952 RMK AO2 SLP007 T00440000
Loading
Personal Weather Stations






























Interactive Weather Map New forecast layout! Learn more

10-Day Weather Forecast

Advertisements
Track Severe Weather on mobile